sensor_id;sensor_type;location;lat;lon;timestamp;temperature;humidity
26103;DHT22;69760;49.380;8.998;2023-05-10T00:01:51;21.00;89.20
26103;DHT22;69760;49.380;8.998;2023-05-10T00:04:17;21.00;89.20
26103;DHT22;69760;49.380;8.998;2023-05-10T00:06:42;21.00;89.10
26103;DHT22;69760;49.380;8.998;2023-05-10T00:09:09;21.00;89.10
26103;DHT22;69760;49.380;8.998;2023-05-10T00:11:34;21.00;89.20
26103;DHT22;69760;49.380;8.998;2023-05-10T00:14:00;21.00;89.10
26103;DHT22;69760;49.380;8.998;2023-05-10T00:16:26;20.90;89.00
26103;DHT22;69760;49.380;8.998;2023-05-10T00:18:51;20.90;89.00
26103;DHT22;69760;49.380;8.998;2023-05-10T00:21:17;20.90;89.10
26103;DHT22;69760;49.380;8.998;2023-05-10T00:23:42;20.90;89.00
26103;DHT22;69760;49.380;8.998;2023-05-10T00:26:08;20.90;89.00
26103;DHT22;69760;49.380;8.998;2023-05-10T00:28:34;20.90;89.10
26103;DHT22;69760;49.380;8.998;2023-05-10T00:30:59;20.90;89.00
26103;DHT22;69760;49.380;8.998;2023-05-10T00:33:25;20.90;89.00
26103;DHT22;69760;49.380;8.998;2023-05-10T00:35:51;20.90;89.00
26103;DHT22;69760;49.380;8.998;2023-05-10T00:38:16;20.90;89.00
26103;DHT22;69760;49.380;8.998;2023-05-10T00:40:42;20.90;88.90
26103;DHT22;69760;49.380;8.998;2023-05-10T00:43:09;20.80;88.80
26103;DHT22;69760;49.380;8.998;2023-05-10T00:45:35;20.80;88.80
26103;DHT22;69760;49.380;8.998;2023-05-10T00:48:02;20.90;88.90
26103;DHT22;69760;49.380;8.998;2023-05-10T00:50:29;20.80;88.80
26103;DHT22;69760;49.380;8.998;2023-05-10T00:52:56;20.80;88.70
26103;DHT22;69760;49.380;8.998;2023-05-10T00:55:22;20.80;88.60
26103;DHT22;69760;49.380;8.998;2023-05-10T00:57:49;20.80;88.60
26103;DHT22;69760;49.380;8.998;2023-05-10T01:00:15;20.80;88.50
26103;DHT22;69760;49.380;8.998;2023-05-10T01:02:47;20.80;88.50
26103;DHT22;69760;49.380;8.998;2023-05-10T01:05:13;20.80;88.40
26103;DHT22;69760;49.380;8.998;2023-05-10T01:07:39;20.80;88.30
26103;DHT22;69760;49.380;8.998;2023-05-10T01:10:06;20.80;88.30
26103;DHT22;69760;49.380;8.998;2023-05-10T01:12:37;20.80;88.30
26103;DHT22;69760;49.380;8.998;2023-05-10T01:15:07;20.80;88.20
26103;DHT22;69760;49.380;8.998;2023-05-10T01:17:35;20.80;88.20
26103;DHT22;69760;49.380;8.998;2023-05-10T01:20:03;20.80;88.10
26103;DHT22;69760;49.380;8.998;2023-05-10T01:23:10;20.80;88.90
26103;DHT22;69760;49.380;8.998;2023-05-10T01:26:07;20.80;88.00
26103;DHT22;69760;49.380;8.998;2023-05-10T01:34:17;20.80;87.90
26103;DHT22;69760;49.380;8.998;2023-05-10T01:36:50;20.80;87.90
26103;DHT22;69760;49.380;8.998;2023-05-10T01:39:25;20.80;87.90
26103;DHT22;69760;49.380;8.998;2023-05-10T01:41:52;20.80;87.80
26103;DHT22;69760;49.380;8.998;2023-05-10T01:46:59;20.80;87.80
26103;DHT22;69760;49.380;8.998;2023-05-10T01:49:30;20.80;87.70
26103;DHT22;69760;49.380;8.998;2023-05-10T01:52:04;20.80;87.70
26103;DHT22;69760;49.380;8.998;2023-05-10T01:54:33;20.80;87.70
26103;DHT22;69760;49.380;8.998;2023-05-10T01:57:03;20.80;87.60
26103;DHT22;69760;49.380;8.998;2023-05-10T01:59:33;20.80;87.60
26103;DHT22;69760;49.380;8.998;2023-05-10T02:02:02;20.80;87.60
26103;DHT22;69760;49.380;8.998;2023-05-10T02:04:28;20.80;87.50
26103;DHT22;69760;49.380;8.998;2023-05-10T02:06:55;20.80;87.50
26103;DHT22;69760;49.380;8.998;2023-05-10T02:09:21;20.80;87.50
26103;DHT22;69760;49.380;8.998;2023-05-10T02:11:49;20.80;87.40
26103;DHT22;69760;49.380;8.998;2023-05-10T02:14:15;20.70;87.30
26103;DHT22;69760;49.380;8.998;2023-05-10T02:16:43;20.80;87.40
26103;DHT22;69760;49.380;8.998;2023-05-10T02:19:10;20.80;87.30
26103;DHT22;69760;49.380;8.998;2023-05-10T02:21:39;20.70;87.30
26103;DHT22;69760;49.380;8.998;2023-05-10T02:24:06;20.70;87.30
26103;DHT22;69760;49.380;8.998;2023-05-10T02:26:35;20.70;87.30
26103;DHT22;69760;49.380;8.998;2023-05-10T02:29:02;20.70;87.30
26103;DHT22;69760;49.380;8.998;2023-05-10T02:31:32;20.70;87.30
26103;DHT22;69760;49.380;8.998;2023-05-10T02:33:59;20.70;87.30
26103;DHT22;69760;49.380;8.998;2023-05-10T02:36:27;20.70;87.20
26103;DHT22;69760;49.380;8.998;2023-05-10T02:38:53;20.70;87.20
26103;DHT22;69760;49.380;8.998;2023-05-10T02:41:20;20.70;87.20
26103;DHT22;69760;49.380;8.998;2023-05-10T02:43:52;20.70;87.20
26103;DHT22;69760;49.380;8.998;2023-05-10T02:46:21;20.70;87.20
26103;DHT22;69760;49.380;8.998;2023-05-10T02:48:46;20.70;87.10
26103;DHT22;69760;49.380;8.998;2023-05-10T02:51:14;20.70;87.10
26103;DHT22;69760;49.380;8.998;2023-05-10T02:53:44;20.70;87.10
26103;DHT22;69760;49.380;8.998;2023-05-10T02:56:24;20.70;86.40
26103;DHT22;69760;49.380;8.998;2023-05-10T02:58:52;20.70;87.00
26103;DHT22;69760;49.380;8.998;2023-05-10T03:01:17;20.60;86.90
26103;DHT22;69760;49.380;8.998;2023-05-10T03:03:43;20.60;86.90
26103;DHT22;69760;49.380;8.998;2023-05-10T03:06:08;20.60;86.90
26103;DHT22;69760;49.380;8.998;2023-05-10T03:08:34;20.60;86.90
26103;DHT22;69760;49.380;8.998;2023-05-10T03:13:53;20.60;86.80
26103;DHT22;69760;49.380;8.998;2023-05-10T03:16:29;20.60;86.80
26103;DHT22;69760;49.380;8.998;2023-05-10T03:21:41;20.60;86.80
26103;DHT22;69760;49.380;8.998;2023-05-10T03:24:10;20.60;86.70
26103;DHT22;69760;49.380;8.998;2023-05-10T03:26:38;20.60;86.70
26103;DHT22;69760;49.380;8.998;2023-05-10T03:29:06;20.60;87.50
26103;DHT22;69760;49.380;8.998;2023-05-10T03:31:33;20.60;86.70
26103;DHT22;69760;49.380;8.998;2023-05-10T03:33:58;20.60;86.70
26103;DHT22;69760;49.380;8.998;2023-05-10T03:36:24;20.60;86.70
26103;DHT22;69760;49.380;8.998;2023-05-10T03:38:49;20.60;86.70
26103;DHT22;69760;49.380;8.998;2023-05-10T03:41:15;20.60;86.70
26103;DHT22;69760;49.380;8.998;2023-05-10T03:43:40;20.60;86.70
26103;DHT22;69760;49.380;8.998;2023-05-10T03:46:06;20.60;86.60
26103;DHT22;69760;49.380;8.998;2023-05-10T03:48:32;20.60;86.60
26103;DHT22;69760;49.380;8.998;2023-05-10T03:50:58;20.60;86.70
26103;DHT22;69760;49.380;8.998;2023-05-10T03:53:24;20.60;86.60
26103;DHT22;69760;49.380;8.998;2023-05-10T03:55:50;20.60;86.50
26103;DHT22;69760;49.380;8.998;2023-05-10T03:58:15;20.60;86.50
26103;DHT22;69760;49.380;8.998;2023-05-10T04:00:41;20.70;86.60
26103;DHT22;69760;49.380;8.998;2023-05-10T04:03:09;20.60;86.50
26103;DHT22;69760;49.380;8.998;2023-05-10T04:05:35;20.70;86.50
26103;DHT22;69760;49.380;8.998;2023-05-10T04:08:02;20.70;86.50
26103;DHT22;69760;49.380;8.998;2023-05-10T04:10:27;20.70;86.60
26103;DHT22;69760;49.380;8.998;2023-05-10T04:12:53;20.70;86.50
26103;DHT22;69760;49.380;8.998;2023-05-10T04:15:19;20.70;86.60
26103;DHT22;69760;49.380;8.998;2023-05-10T04:17:45;20.60;86.50
26103;DHT22;69760;49.380;8.998;2023-05-10T04:20:11;20.60;86.50
26103;DHT22;69760;49.380;8.998;2023-05-10T04:22:36;20.60;86.50
26103;DHT22;69760;49.380;8.998;2023-05-10T04:25:02;20.50;86.50
26103;DHT22;69760;49.380;8.998;2023-05-10T04:27:28;20.50;86.70
26103;DHT22;69760;49.380;8.998;2023-05-10T04:29:53;20.50;87.60
26103;DHT22;69760;49.380;8.998;2023-05-10T04:32:19;20.40;86.80
26103;DHT22;69760;49.380;8.998;2023-05-10T04:34:45;20.40;87.00
26103;DHT22;69760;49.380;8.998;2023-05-10T04:37:11;20.40;86.80
26103;DHT22;69760;49.380;8.998;2023-05-10T04:39:36;20.40;86.90
26103;DHT22;69760;49.380;8.998;2023-05-10T04:42:03;20.40;86.90
26103;DHT22;69760;49.380;8.998;2023-05-10T04:44:29;20.40;86.80
26103;DHT22;69760;49.380;8.998;2023-05-10T04:46:55;20.40;86.80
26103;DHT22;69760;49.380;8.998;2023-05-10T04:49:20;20.40;86.80
26103;DHT22;69760;49.380;8.998;2023-05-10T04:51:47;20.40;86.80
26103;DHT22;69760;49.380;8.998;2023-05-10T04:54:12;20.40;86.80
26103;DHT22;69760;49.380;8.998;2023-05-10T04:56:38;20.40;86.80
26103;DHT22;69760;49.380;8.998;2023-05-10T04:59:03;20.40;86.80
26103;DHT22;69760;49.380;8.998;2023-05-10T05:01:29;20.40;86.80
26103;DHT22;69760;49.380;8.998;2023-05-10T05:03:55;20.40;86.80
26103;DHT22;69760;49.380;8.998;2023-05-10T05:06:21;20.40;86.80
26103;DHT22;69760;49.380;8.998;2023-05-10T05:08:46;20.40;86.80
26103;DHT22;69760;49.380;8.998;2023-05-10T05:11:12;20.40;86.80
26103;DHT22;69760;49.380;8.998;2023-05-10T05:13:38;20.40;86.80
26103;DHT22;69760;49.380;8.998;2023-05-10T05:16:04;20.40;86.80
26103;DHT22;69760;49.380;8.998;2023-05-10T05:18:30;20.40;87.20
26103;DHT22;69760;49.380;8.998;2023-05-10T05:20:55;20.50;86.80
26103;DHT22;69760;49.380;8.998;2023-05-10T05:23:21;20.50;86.80
26103;DHT22;69760;49.380;8.998;2023-05-10T05:25:53;20.50;86.80
26103;DHT22;69760;49.380;8.998;2023-05-10T05:28:21;20.50;86.80
26103;DHT22;69760;49.380;8.998;2023-05-10T05:30:47;20.50;86.80
26103;DHT22;69760;49.380;8.998;2023-05-10T05:33:16;20.50;86.80
26103;DHT22;69760;49.380;8.998;2023-05-10T05:35:41;20.50;86.80
26103;DHT22;69760;49.380;8.998;2023-05-10T05:38:09;20.50;86.80
26103;DHT22;69760;49.380;8.998;2023-05-10T05:40:35;20.40;86.80
26103;DHT22;69760;49.380;8.998;2023-05-10T05:43:01;20.40;86.80
26103;DHT22;69760;49.380;8.998;2023-05-10T05:45:26;20.40;86.80
26103;DHT22;69760;49.380;8.998;2023-05-10T05:47:52;20.40;86.90
26103;DHT22;69760;49.380;8.998;2023-05-10T05:50:18;20.40;87.00
26103;DHT22;69760;49.380;8.998;2023-05-10T05:52:43;20.40;87.00
26103;DHT22;69760;49.380;8.998;2023-05-10T05:55:09;20.40;87.20
26103;DHT22;69760;49.380;8.998;2023-05-10T05:57:34;20.40;87.20
26103;DHT22;69760;49.380;8.998;2023-05-10T06:00:00;20.40;87.30
26103;DHT22;69760;49.380;8.998;2023-05-10T06:02:26;20.40;88.10
26103;DHT22;69760;49.380;8.998;2023-05-10T06:04:51;20.40;87.30
26103;DHT22;69760;49.380;8.998;2023-05-10T06:07:17;20.40;87.30
26103;DHT22;69760;49.380;8.998;2023-05-10T06:09:42;20.40;87.50
26103;DHT22;69760;49.380;8.998;2023-05-10T06:12:08;20.40;87.50
26103;DHT22;69760;49.380;8.998;2023-05-10T06:14:33;20.40;87.50
26103;DHT22;69760;49.380;8.998;2023-05-10T06:16:59;20.40;87.50
26103;DHT22;69760;49.380;8.998;2023-05-10T06:19:25;20.40;87.60
26103;DHT22;69760;49.380;8.998;2023-05-10T06:21:51;20.40;87.60
26103;DHT22;69760;49.380;8.998;2023-05-10T06:24:17;20.40;87.60
26103;DHT22;69760;49.380;8.998;2023-05-10T06:26:42;20.40;87.60
26103;DHT22;69760;49.380;8.998;2023-05-10T06:29:08;20.40;87.60
26103;DHT22;69760;49.380;8.998;2023-05-10T06:31:34;20.40;87.60
26103;DHT22;69760;49.380;8.998;2023-05-10T06:33:59;20.40;87.60
26103;DHT22;69760;49.380;8.998;2023-05-10T06:36:25;20.40;87.60
26103;DHT22;69760;49.380;8.998;2023-05-10T06:38:51;20.40;87.60
26103;DHT22;69760;49.380;8.998;2023-05-10T06:41:17;20.40;87.70
26103;DHT22;69760;49.380;8.998;2023-05-10T06:43:43;20.40;87.70
26103;DHT22;69760;49.380;8.998;2023-05-10T06:46:08;20.40;87.70
26103;DHT22;69760;49.380;8.998;2023-05-10T06:48:34;20.40;87.70
26103;DHT22;69760;49.380;8.998;2023-05-10T06:51:00;20.40;87.70
26103;DHT22;69760;49.380;8.998;2023-05-10T06:53:25;20.40;87.80
26103;DHT22;69760;49.380;8.998;2023-05-10T06:55:51;20.40;87.90
26103;DHT22;69760;49.380;8.998;2023-05-10T06:58:17;20.40;88.00
26103;DHT22;69760;49.380;8.998;2023-05-10T07:00:42;20.30;88.00
26103;DHT22;69760;49.380;8.998;2023-05-10T07:03:09;20.30;88.00
26103;DHT22;69760;49.380;8.998;2023-05-10T07:05:35;20.30;88.00
26103;DHT22;69760;49.380;8.998;2023-05-10T07:08:01;20.30;87.90
26103;DHT22;69760;49.380;8.998;2023-05-10T07:10:27;20.30;87.90
26103;DHT22;69760;49.380;8.998;2023-05-10T07:12:52;20.20;88.00
26103;DHT22;69760;49.380;8.998;2023-05-10T07:15:18;20.30;88.00
26103;DHT22;69760;49.380;8.998;2023-05-10T07:17:44;20.20;88.00
26103;DHT22;69760;49.380;8.998;2023-05-10T07:20:09;20.20;88.10
26103;DHT22;69760;49.380;8.998;2023-05-10T07:22:35;20.20;88.20
26103;DHT22;69760;49.380;8.998;2023-05-10T07:25:01;20.20;88.20
26103;DHT22;69760;49.380;8.998;2023-05-10T07:27:27;20.20;88.30
26103;DHT22;69760;49.380;8.998;2023-05-10T07:29:53;20.20;88.40
26103;DHT22;69760;49.380;8.998;2023-05-10T07:32:18;20.20;88.30
26103;DHT22;69760;49.380;8.998;2023-05-10T07:34:44;20.20;88.40
26103;DHT22;69760;49.380;8.998;2023-05-10T07:37:09;20.20;88.30
26103;DHT22;69760;49.380;8.998;2023-05-10T07:39:35;20.20;88.40
26103;DHT22;69760;49.380;8.998;2023-05-10T07:42:00;20.20;88.30
26103;DHT22;69760;49.380;8.998;2023-05-10T07:44:26;20.20;88.30
26103;DHT22;69760;49.380;8.998;2023-05-10T07:46:52;20.20;88.30
26103;DHT22;69760;49.380;8.998;2023-05-10T07:49:17;20.20;88.40
26103;DHT22;69760;49.380;8.998;2023-05-10T07:51:43;20.20;88.40
26103;DHT22;69760;49.380;8.998;2023-05-10T07:54:08;20.20;88.40
26103;DHT22;69760;49.380;8.998;2023-05-10T07:56:34;20.20;88.40
26103;DHT22;69760;49.380;8.998;2023-05-10T07:59:01;20.20;88.40
26103;DHT22;69760;49.380;8.998;2023-05-10T08:01:30;20.20;88.50
26103;DHT22;69760;49.380;8.998;2023-05-10T08:03:56;20.20;88.60
26103;DHT22;69760;49.380;8.998;2023-05-10T08:06:22;20.20;88.60
26103;DHT22;69760;49.380;8.998;2023-05-10T08:08:48;20.20;88.60
26103;DHT22;69760;49.380;8.998;2023-05-10T08:11:17;20.20;88.60
26103;DHT22;69760;49.380;8.998;2023-05-10T08:13:44;20.20;88.60
26103;DHT22;69760;49.380;8.998;2023-05-10T08:16:10;20.20;88.80
26103;DHT22;69760;49.380;8.998;2023-05-10T08:18:36;20.20;88.90
26103;DHT22;69760;49.380;8.998;2023-05-10T08:21:02;20.20;88.90
26103;DHT22;69760;49.380;8.998;2023-05-10T08:23:27;20.20;89.00
26103;DHT22;69760;49.380;8.998;2023-05-10T08:25:53;20.20;89.10
26103;DHT22;69760;49.380;8.998;2023-05-10T08:28:19;20.20;89.10
26103;DHT22;69760;49.380;8.998;2023-05-10T08:30:44;20.30;89.30
26103;DHT22;69760;49.380;8.998;2023-05-10T08:33:10;20.30;89.20
26103;DHT22;69760;49.380;8.998;2023-05-10T08:35:35;20.30;89.20
26103;DHT22;69760;49.380;8.998;2023-05-10T08:38:01;20.30;89.00
26103;DHT22;69760;49.380;8.998;2023-05-10T08:40:27;20.30;89.00
26103;DHT22;69760;49.380;8.998;2023-05-10T08:43:05;20.30;89.00
26103;DHT22;69760;49.380;8.998;2023-05-10T08:45:35;20.40;89.10
26103;DHT22;69760;49.380;8.998;2023-05-10T08:48:04;20.40;89.10
26103;DHT22;69760;49.380;8.998;2023-05-10T08:50:31;20.30;89.10
26103;DHT22;69760;49.380;8.998;2023-05-10T08:53:00;20.40;89.10
26103;DHT22;69760;49.380;8.998;2023-05-10T08:55:27;20.40;89.00
26103;DHT22;69760;49.380;8.998;2023-05-10T08:57:53;20.40;89.00
26103;DHT22;69760;49.380;8.998;2023-05-10T09:00:19;20.40;89.00
26103;DHT22;69760;49.380;8.998;2023-05-10T09:02:45;20.40;89.00
26103;DHT22;69760;49.380;8.998;2023-05-10T09:05:12;20.40;89.00
26103;DHT22;69760;49.380;8.998;2023-05-10T09:07:37;20.30;88.90
26103;DHT22;69760;49.380;8.998;2023-05-10T09:10:04;20.30;88.90
26103;DHT22;69760;49.380;8.998;2023-05-10T09:12:30;20.30;88.90
26103;DHT22;69760;49.380;8.998;2023-05-10T09:14:57;20.40;89.00
26103;DHT22;69760;49.380;8.998;2023-05-10T09:17:25;20.30;88.90
26103;DHT22;69760;49.380;8.998;2023-05-10T09:19:59;20.30;88.90
26103;DHT22;69760;49.380;8.998;2023-05-10T09:22:25;20.30;88.90
26103;DHT22;69760;49.380;8.998;2023-05-10T09:25:11;20.30;89.00
26103;DHT22;69760;49.380;8.998;2023-05-10T09:27:39;20.40;89.10
26103;DHT22;69760;49.380;8.998;2023-05-10T09:30:05;20.40;89.00
26103;DHT22;69760;49.380;8.998;2023-05-10T09:32:45;20.30;88.90
26103;DHT22;69760;49.380;8.998;2023-05-10T09:35:14;20.30;88.90
26103;DHT22;69760;49.380;8.998;2023-05-10T09:37:45;20.30;88.90
26103;DHT22;69760;49.380;8.998;2023-05-10T09:40:15;20.30;88.80
26103;DHT22;69760;49.380;8.998;2023-05-10T09:45:31;20.40;88.80
26103;DHT22;69760;49.380;8.998;2023-05-10T09:47:57;20.30;88.70
26103;DHT22;69760;49.380;8.998;2023-05-10T09:50:24;20.40;88.80
26103;DHT22;69760;49.380;8.998;2023-05-10T09:52:55;20.40;88.80
26103;DHT22;69760;49.380;8.998;2023-05-10T09:55:41;20.40;88.80
26103;DHT22;69760;49.380;8.998;2023-05-10T09:58:08;20.40;88.80
26103;DHT22;69760;49.380;8.998;2023-05-10T10:00:39;20.50;88.80
26103;DHT22;69760;49.380;8.998;2023-05-10T10:03:05;20.50;88.90
26103;DHT22;69760;49.380;8.998;2023-05-10T10:05:33;20.50;88.80
26103;DHT22;69760;49.380;8.998;2023-05-10T10:08:01;20.50;88.80
26103;DHT22;69760;49.380;8.998;2023-05-10T10:10:27;20.60;88.80
26103;DHT22;69760;49.380;8.998;2023-05-10T10:12:54;20.60;88.80
26103;DHT22;69760;49.380;8.998;2023-05-10T10:15:23;20.60;88.90
26103;DHT22;69760;49.380;8.998;2023-05-10T10:17:50;20.60;89.10
26103;DHT22;69760;49.380;8.998;2023-05-10T10:20:17;20.70;89.20
26103;DHT22;69760;49.380;8.998;2023-05-10T10:22:43;20.70;89.20
26103;DHT22;69760;49.380;8.998;2023-05-10T10:25:10;20.70;89.30
26103;DHT22;69760;49.380;8.998;2023-05-10T10:30:37;20.70;89.40
26103;DHT22;69760;49.380;8.998;2023-05-10T10:35:59;20.80;89.40
26103;DHT22;69760;49.380;8.998;2023-05-10T10:38:25;20.80;89.40
26103;DHT22;69760;49.380;8.998;2023-05-10T10:41:11;20.80;89.60
26103;DHT22;69760;49.380;8.998;2023-05-10T10:44:24;20.80;89.60
26103;DHT22;69760;49.380;8.998;2023-05-10T10:47:02;20.80;89.40
26103;DHT22;69760;49.380;8.998;2023-05-10T10:49:32;20.90;89.50
26103;DHT22;69760;49.380;8.998;2023-05-10T10:55:09;20.90;89.30
26103;DHT22;69760;49.380;8.998;2023-05-10T11:00:20;20.90;89.20
26103;DHT22;69760;49.380;8.998;2023-05-10T11:02:48;20.90;89.20
26103;DHT22;69760;49.380;8.998;2023-05-10T11:05:34;20.90;89.10
26103;DHT22;69760;49.380;8.998;2023-05-10T11:10:37;20.90;89.00
26103;DHT22;69760;49.380;8.998;2023-05-10T11:13:08;21.00;89.00
26103;DHT22;69760;49.380;8.998;2023-05-10T11:15:39;21.00;89.00
26103;DHT22;69760;49.380;8.998;2023-05-10T11:18:18;21.00;89.00
26103;DHT22;69760;49.380;8.998;2023-05-10T11:20:55;21.00;88.80
26103;DHT22;69760;49.380;8.998;2023-05-10T11:23:21;21.00;88.80
26103;DHT22;69760;49.380;8.998;2023-05-10T11:25:48;21.00;89.00
26103;DHT22;69760;49.380;8.998;2023-05-10T11:28:14;21.00;88.90
26103;DHT22;69760;49.380;8.998;2023-05-10T11:30:41;21.00;89.00
26103;DHT22;69760;49.380;8.998;2023-05-10T11:33:09;21.00;89.00
26103;DHT22;69760;49.380;8.998;2023-05-10T11:35:40;21.00;89.00
26103;DHT22;69760;49.380;8.998;2023-05-10T11:38:07;21.10;89.00
26103;DHT22;69760;49.380;8.998;2023-05-10T11:40:40;21.10;89.00
26103;DHT22;69760;49.380;8.998;2023-05-10T11:56:16;21.10;88.30
26103;DHT22;69760;49.380;8.998;2023-05-10T11:58:42;21.10;88.20
26103;DHT22;69760;49.380;8.998;2023-05-10T12:01:08;21.10;88.00
26103;DHT22;69760;49.380;8.998;2023-05-10T12:03:34;21.10;88.00
26103;DHT22;69760;49.380;8.998;2023-05-10T12:06:01;21.10;88.70
26103;DHT22;69760;49.380;8.998;2023-05-10T12:08:28;21.10;88.50
26103;DHT22;69760;49.380;8.998;2023-05-10T12:11:04;21.10;87.60
26103;DHT22;69760;49.380;8.998;2023-05-10T12:13:29;21.20;87.50
26103;DHT22;69760;49.380;8.998;2023-05-10T12:15:58;21.20;87.40
26103;DHT22;69760;49.380;8.998;2023-05-10T12:18:24;21.10;87.30
26103;DHT22;69760;49.380;8.998;2023-05-10T12:20:52;21.20;87.20
26103;DHT22;69760;49.380;8.998;2023-05-10T12:23:19;21.20;87.10
26103;DHT22;69760;49.380;8.998;2023-05-10T12:25:45;21.20;87.10
26103;DHT22;69760;49.380;8.998;2023-05-10T12:28:11;21.20;87.20
26103;DHT22;69760;49.380;8.998;2023-05-10T12:30:37;21.20;87.20
26103;DHT22;69760;49.380;8.998;2023-05-10T12:33:13;21.20;87.10
26103;DHT22;69760;49.380;8.998;2023-05-10T12:38:34;21.20;86.90
26103;DHT22;69760;49.380;8.998;2023-05-10T12:41:08;21.20;86.90
26103;DHT22;69760;49.380;8.998;2023-05-10T12:43:35;21.20;86.70
26103;DHT22;69760;49.380;8.998;2023-05-10T12:46:27;21.20;86.60
26103;DHT22;69760;49.380;8.998;2023-05-10T12:48:53;21.20;86.70
26103;DHT22;69760;49.380;8.998;2023-05-10T12:51:20;21.20;86.70
26103;DHT22;69760;49.380;8.998;2023-05-10T12:53:47;21.20;86.80
26103;DHT22;69760;49.380;8.998;2023-05-10T12:56:13;21.20;86.70
26103;DHT22;69760;49.380;8.998;2023-05-10T12:58:39;21.20;86.70
26103;DHT22;69760;49.380;8.998;2023-05-10T13:01:05;21.20;86.60
26103;DHT22;69760;49.380;8.998;2023-05-10T13:03:30;21.20;86.50
26103;DHT22;69760;49.380;8.998;2023-05-10T13:05:56;21.20;86.50
26103;DHT22;69760;49.380;8.998;2023-05-10T13:08:22;21.20;86.50
26103;DHT22;69760;49.380;8.998;2023-05-10T13:10:47;21.20;86.40
26103;DHT22;69760;49.380;8.998;2023-05-10T13:13:14;21.20;86.30
26103;DHT22;69760;49.380;8.998;2023-05-10T13:15:40;21.20;86.20
26103;DHT22;69760;49.380;8.998;2023-05-10T13:18:06;21.20;86.20
26103;DHT22;69760;49.380;8.998;2023-05-10T13:20:31;21.20;86.30
26103;DHT22;69760;49.380;8.998;2023-05-10T13:22:57;21.20;86.10
26103;DHT22;69760;49.380;8.998;2023-05-10T13:25:22;21.20;86.80
26103;DHT22;69760;49.380;8.998;2023-05-10T13:27:48;21.20;86.00
26103;DHT22;69760;49.380;8.998;2023-05-10T13:30:14;21.30;86.10
26103;DHT22;69760;49.380;8.998;2023-05-10T13:32:40;21.30;85.90
26103;DHT22;69760;49.380;8.998;2023-05-10T13:35:06;21.30;85.80
26103;DHT22;69760;49.380;8.998;2023-05-10T13:37:32;21.30;85.70
26103;DHT22;69760;49.380;8.998;2023-05-10T13:40:00;21.30;85.50
26103;DHT22;69760;49.380;8.998;2023-05-10T13:42:26;21.30;85.40
26103;DHT22;69760;49.380;8.998;2023-05-10T13:44:52;21.30;85.30
26103;DHT22;69760;49.380;8.998;2023-05-10T13:47:18;21.30;85.30
26103;DHT22;69760;49.380;8.998;2023-05-10T13:49:43;21.30;85.20
26103;DHT22;69760;49.380;8.998;2023-05-10T13:52:09;21.30;85.10
26103;DHT22;69760;49.380;8.998;2023-05-10T13:54:36;21.30;85.10
26103;DHT22;69760;49.380;8.998;2023-05-10T13:57:02;21.30;85.10
26103;DHT22;69760;49.380;8.998;2023-05-10T13:59:28;21.30;85.00
26103;DHT22;69760;49.380;8.998;2023-05-10T14:01:54;21.30;85.00
26103;DHT22;69760;49.380;8.998;2023-05-10T14:04:20;21.30;85.00
26103;DHT22;69760;49.380;8.998;2023-05-10T14:06:45;21.30;85.00
26103;DHT22;69760;49.380;8.998;2023-05-10T14:09:11;21.30;84.90
26103;DHT22;69760;49.380;8.998;2023-05-10T14:11:37;21.30;84.90
26103;DHT22;69760;49.380;8.998;2023-05-10T14:14:07;21.30;84.90
26103;DHT22;69760;49.380;8.998;2023-05-10T14:16:32;21.30;84.90
26103;DHT22;69760;49.380;8.998;2023-05-10T14:18:58;21.40;84.90
26103;DHT22;69760;49.380;8.998;2023-05-10T14:21:24;21.40;84.90
26103;DHT22;69760;49.380;8.998;2023-05-10T14:23:49;21.40;84.80
26103;DHT22;69760;49.380;8.998;2023-05-10T14:26:15;21.30;84.70
26103;DHT22;69760;49.380;8.998;2023-05-10T14:28:40;21.40;84.70
26103;DHT22;69760;49.380;8.998;2023-05-10T14:31:06;21.40;84.60
26103;DHT22;69760;49.380;8.998;2023-05-10T14:33:31;21.40;84.50
26103;DHT22;69760;49.380;8.998;2023-05-10T14:35:57;21.40;84.40
26103;DHT22;69760;49.380;8.998;2023-05-10T14:38:23;21.40;84.40
26103;DHT22;69760;49.380;8.998;2023-05-10T14:40:49;21.40;84.30
26103;DHT22;69760;49.380;8.998;2023-05-10T14:43:14;21.40;84.30
26103;DHT22;69760;49.380;8.998;2023-05-10T14:45:40;21.40;84.10
26103;DHT22;69760;49.380;8.998;2023-05-10T14:48:06;21.40;84.10
26103;DHT22;69760;49.380;8.998;2023-05-10T14:50:36;21.40;84.00
26103;DHT22;69760;49.380;8.998;2023-05-10T14:53:02;21.40;83.80
26103;DHT22;69760;49.380;8.998;2023-05-10T14:55:27;21.40;83.60
26103;DHT22;69760;49.380;8.998;2023-05-10T14:57:53;21.40;83.50
26103;DHT22;69760;49.380;8.998;2023-05-10T15:00:19;21.40;83.40
26103;DHT22;69760;49.380;8.998;2023-05-10T15:02:45;21.40;83.20
26103;DHT22;69760;49.380;8.998;2023-05-10T15:05:11;21.40;83.20
26103;DHT22;69760;49.380;8.998;2023-05-10T15:07:36;21.40;83.10
26103;DHT22;69760;49.380;8.998;2023-05-10T15:10:02;21.40;83.10
26103;DHT22;69760;49.380;8.998;2023-05-10T15:12:28;21.40;83.00
26103;DHT22;69760;49.380;8.998;2023-05-10T15:14:53;21.40;83.00
26103;DHT22;69760;49.380;8.998;2023-05-10T15:17:19;21.50;83.00
26103;DHT22;69760;49.380;8.998;2023-05-10T15:19:45;21.50;83.00
26103;DHT22;69760;49.380;8.998;2023-05-10T15:22:10;21.50;83.00
26103;DHT22;69760;49.380;8.998;2023-05-10T15:24:36;21.50;83.10
26103;DHT22;69760;49.380;8.998;2023-05-10T15:27:02;21.50;83.00
26103;DHT22;69760;49.380;8.998;2023-05-10T15:29:28;21.50;83.00
26103;DHT22;69760;49.380;8.998;2023-05-10T15:31:54;21.40;82.90
26103;DHT22;69760;49.380;8.998;2023-05-10T15:34:20;21.50;82.60
26103;DHT22;69760;49.380;8.998;2023-05-10T15:36:46;21.50;82.50
26103;DHT22;69760;49.380;8.998;2023-05-10T15:39:11;21.50;82.50
26103;DHT22;69760;49.380;8.998;2023-05-10T15:41:37;21.50;82.40
26103;DHT22;69760;49.380;8.998;2023-05-10T15:44:03;21.50;82.40
26103;DHT22;69760;49.380;8.998;2023-05-10T15:46:29;21.50;82.30
26103;DHT22;69760;49.380;8.998;2023-05-10T15:48:56;21.50;82.30
26103;DHT22;69760;49.380;8.998;2023-05-10T15:51:22;21.50;82.10
26103;DHT22;69760;49.380;8.998;2023-05-10T15:53:47;21.50;81.90
26103;DHT22;69760;49.380;8.998;2023-05-10T15:56:13;21.50;81.90
26103;DHT22;69760;49.380;8.998;2023-05-10T15:58:40;21.50;82.00
26103;DHT22;69760;49.380;8.998;2023-05-10T16:01:05;21.50;82.00
26103;DHT22;69760;49.380;8.998;2023-05-10T16:03:35;21.50;81.90
26103;DHT22;69760;49.380;8.998;2023-05-10T16:06:00;21.60;82.20
26103;DHT22;69760;49.380;8.998;2023-05-10T16:08:27;21.60;83.10
26103;DHT22;69760;49.380;8.998;2023-05-10T16:10:55;21.60;82.30
26103;DHT22;69760;49.380;8.998;2023-05-10T16:13:21;21.50;82.30
26103;DHT22;69760;49.380;8.998;2023-05-10T16:39:14;21.50;82.10
26103;DHT22;69760;49.380;8.998;2023-05-10T16:41:39;21.50;82.20